Time;durP1;ratioP1;P1;durP2;ratioP2;P2;SDS_P1;SDS_P2;PMS_P1;PMS_P2;Temp;Humidity;BMP_temperature;BMP_pressure;BME280_temperature;BME280_humidity;BME280_pressure;Samples;Min_cycle;Max_cycle;Signal;HPM_P1;HPM_P2
2022/09/13 00:00:11;;;;;;;;;11.33;10.67;;;;;;;;5088541;27;51104;-57
2022/09/13 00:02:36;;;;;;;;;10.00;10.00;;;;;;;;5080796;27;51111;-57
2022/09/13 00:05:01;;;;;;;;;10.33;9.67;;;;;;;;5091359;27;51032;-57
2022/09/13 00:07:26;;;;;;;;;8.67;8.67;;;;;;;;5088077;27;51229;-57
2022/09/13 00:09:52;;;;;;;;;8.00;7.33;;;;;;;;5093977;27;51277;-57
2022/09/13 00:12:17;;;;;;;;;8.33;7.00;;;;;;;;5078516;27;51063;-57
2022/09/13 00:14:42;;;;;;;;;8.00;7.67;;;;;;;;5073912;27;50985;-57
2022/09/13 00:17:07;;;;;;;;;8.33;8.33;;;;;;;;5079819;27;51396;-58
2022/09/13 00:19:32;;;;;;;;;10.33;9.33;;;;;;;;5079432;27;50939;-56
2022/09/13 00:21:58;;;;;;;;;10.00;10.00;;;;;;;;5073380;27;51061;-57
2022/09/13 00:24:23;;;;;;;;;10.00;10.00;;;;;;;;5079668;27;51264;-57
2022/09/13 00:26:48;;;;;;;;;8.67;8.33;;;;;;;;5074832;27;51345;-57
2022/09/13 00:29:13;;;;;;;;;11.00;11.00;;;;;;;;5078601;27;51029;-58
2022/09/13 00:31:38;;;;;;;;;13.00;13.00;;;;;;;;5073297;27;51325;-58
2022/09/13 00:34:04;;;;;;;;;12.00;11.00;;;;;;;;5087015;27;50922;-58
2022/09/13 00:36:29;;;;;;;;;14.00;12.25;;;;;;;;5078449;27;51111;-58
2022/09/13 00:38:54;;;;;;;;;12.00;11.50;;;;;;;;5073241;27;50867;-57
2022/09/13 00:41:20;;;;;;;;;12.33;12.00;;;;;;;;5072653;27;51513;-58
2022/09/13 00:43:48;;;;;;;;;9.00;9.00;;;;;;;;5072062;28;51228;-58
2022/09/13 00:46:32;;;;;;;;;10.33;10.33;;;;;;;;5082519;27;51999;-58
2022/09/13 00:49:00;;;;;;;;;13.33;12.00;;;;;;;;5093302;27;51079;-57
2022/09/13 00:51:26;;;;;;;;;12.00;11.75;;;;;;;;5093224;27;51071;-59
2022/09/13 00:53:53;;;;;;;;;9.00;9.00;;;;;;;;5078418;27;51063;-58
2022/09/13 00:56:22;;;;;;;;;12.75;12.00;;;;;;;;5072244;27;51108;-58
2022/09/13 00:58:51;;;;;;;;;10.67;10.67;;;;;;;;5071197;27;51265;-57
2022/09/13 01:01:17;;;;;;;;;11.00;10.67;;;;;;;;5076896;27;51011;-58
2022/09/13 01:03:44;;;;;;;;;13.67;13.33;;;;;;;;5073328;27;51080;-58
2022/09/13 01:06:12;;;;;;;;;12.25;12.00;;;;;;;;5082196;27;51940;-57
2022/09/13 01:08:39;;;;;;;;;14.67;14.00;;;;;;;;5079453;27;50987;-58
2022/09/13 01:11:05;;;;;;;;;11.75;11.25;;;;;;;;5072453;27;51204;-57
2022/09/13 01:13:34;;;;;;;;;12.00;12.00;;;;;;;;5092885;27;50965;-58
2022/09/13 01:15:59;;;;;;;;;11.67;10.67;;;;;;;;5086142;27;52227;-58
2022/09/13 01:18:25;;;;;;;;;13.00;11.33;;;;;;;;5072618;27;50965;-58
2022/09/13 01:21:08;;;;;;;;;9.33;9.33;;;;;;;;5072653;27;50900;-58
2022/09/13 01:23:52;;;;;;;;;10.00;9.00;;;;;;;;5072971;27;50978;-58
2022/09/13 01:26:41;;;;;;;;;12.00;10.33;;;;;;;;5070921;27;52031;-58
2022/09/13 01:29:06;;;;;;;;;11.00;10.33;;;;;;;;5105013;27;50990;-58
2022/09/13 01:31:40;;;;;;;;;10.00;9.00;;;;;;;;5074219;27;51181;-58
2022/09/13 01:34:15;;;;;;;;;10.00;10.00;;;;;;;;5085820;27;51518;-57
2022/09/13 01:36:59;;;;;;;;;12.00;11.00;;;;;;;;5084615;27;51127;-58
2022/09/13 01:39:48;;;;;;;;;11.33;10.33;;;;;;;;5072403;27;50909;-58
2022/09/13 01:42:48;;;;;;;;;9.33;9.33;;;;;;;;5072679;28;51108;-58
2022/09/13 01:45:23;;;;;;;;;12.00;12.00;;;;;;;;5070345;28;50981;-58
2022/09/13 01:47:48;;;;;;;;;8.33;8.33;;;;;;;;5071644;27;51850;-58
2022/09/13 01:50:39;;;;;;;;;10.00;10.00;;;;;;;;5072063;27;50985;-59
2022/09/13 01:53:16;;;;;;;;;9.33;9.33;;;;;;;;5080510;27;51259;-58
2022/09/13 01:55:56;;;;;;;;;11.00;10.00;;;;;;;;5075437;27;51347;-57
2022/09/13 01:58:40;;;;;;;;;11.00;9.67;;;;;;;;5080539;27;52248;-56
2022/09/13 02:01:17;;;;;;;;;9.00;8.00;;;;;;;;5088588;27;50902;-57
2022/09/13 02:03:54;;;;;;;;;9.67;9.33;;;;;;;;5075678;27;50881;-57
2022/09/13 02:06:26;;;;;;;;;7.33;7.33;;;;;;;;5076123;27;51044;-57
2022/09/13 02:08:59;;;;;;;;;9.00;8.00;;;;;;;;5090470;27;52551;-57
2022/09/13 02:11:24;;;;;;;;;10.00;9.00;;;;;;;;5090757;27;51270;-57
2022/09/13 02:14:08;;;;;;;;;5.33;5.00;;;;;;;;5096171;27;50960;-57
2022/09/13 02:16:37;;;;;;;;;6.00;6.00;;;;;;;;5089933;27;51043;-58
2022/09/13 02:19:08;;;;;;;;;6.67;6.00;;;;;;;;5073845;27;52757;-58
2022/09/13 02:21:38;;;;;;;;;5.00;5.00;;;;;;;;5075106;28;51069;-58
2022/09/13 02:24:03;;;;;;;;;5.67;5.00;;;;;;;;5077550;27;51249;-57
2022/09/13 02:26:29;;;;;;;;;5.00;5.00;;;;;;;;5085268;27;51363;-58
2022/09/13 02:28:57;;;;;;;;;6.33;6.00;;;;;;;;5085299;27;51316;-57
2022/09/13 02:31:25;;;;;;;;;7.67;7.00;;;;;;;;5095210;27;51047;-57
2022/09/13 02:33:52;;;;;;;;;7.00;7.00;;;;;;;;5095937;27;51072;-58
2022/09/13 02:36:21;;;;;;;;;8.00;7.33;;;;;;;;5093713;27;51266;-57
2022/09/13 02:38:50;;;;;;;;;8.00;6.67;;;;;;;;5084917;27;52058;-58
2022/09/13 02:41:19;;;;;;;;;6.67;6.00;;;;;;;;5077843;27;51101;-57
2022/09/13 02:43:48;;;;;;;;;7.00;6.00;;;;;;;;5075146;27;51170;-58
2022/09/13 02:46:21;;;;;;;;;7.00;7.00;;;;;;;;5074922;27;51341;-58
2022/09/13 02:48:56;;;;;;;;;8.00;8.00;;;;;;;;5074651;27;51046;-59
2022/09/13 02:51:32;;;;;;;;;8.00;7.00;;;;;;;;5074769;27;51053;-57
2022/09/13 02:54:08;;;;;;;;;7.00;6.00;;;;;;;;5081369;27;51104;-58
2022/09/13 02:56:48;;;;;;;;;6.00;6.00;;;;;;;;5074553;27;51239;-58
2022/09/13 02:59:18;;;;;;;;;7.00;6.67;;;;;;;;5074809;27;52376;-57
2022/09/13 03:01:46;;;;;;;;;7.67;7.67;;;;;;;;5082681;27;51035;-58
2022/09/13 03:04:11;;;;;;;;;8.00;8.00;;;;;;;;5074791;27;50953;-57
2022/09/13 03:06:38;;;;;;;;;7.33;7.00;;;;;;;;5089589;27;50966;-58
2022/09/13 03:09:04;;;;;;;;;6.67;6.00;;;;;;;;5094900;27;52382;-57
2022/09/13 03:11:48;;;;;;;;;6.00;4.00;;;;;;;;5095307;27;51154;-58
2022/09/13 03:14:22;;;;;;;;;4.33;3.67;;;;;;;;5094600;27;51212;-57
2022/09/13 03:16:57;;;;;;;;;7.00;6.00;;;;;;;;5083575;27;50967;-57
2022/09/13 03:19:41;;;;;;;;;6.67;6.67;;;;;;;;5074363;27;51113;-58
2022/09/13 03:22:15;;;;;;;;;6.00;6.00;;;;;;;;5074765;27;51056;-57
2022/09/13 03:24:46;;;;;;;;;5.00;5.00;;;;;;;;5073990;27;51088;-57
2022/09/13 03:27:11;;;;;;;;;5.00;5.00;;;;;;;;5080346;27;51087;-57
2022/09/13 03:29:45;;;;;;;;;3.67;3.33;;;;;;;;5076830;27;51785;-57
2022/09/13 03:32:19;;;;;;;;;5.33;5.00;;;;;;;;5085189;27;51081;-57
2022/09/13 03:34:47;;;;;;;;;6.00;6.00;;;;;;;;5094174;27;51185;-59
2022/09/13 03:37:21;;;;;;;;;5.67;5.33;;;;;;;;5082248;27;51009;-57
2022/09/13 03:40:01;;;;;;;;;6.00;6.00;;;;;;;;5072681;28;52890;-56
2022/09/13 03:42:37;;;;;;;;;7.00;7.00;;;;;;;;5084105;27;51046;-57
2022/09/13 03:45:04;;;;;;;;;7.00;7.00;;;;;;;;5091083;27;51164;-57
2022/09/13 03:47:31;;;;;;;;;6.00;5.33;;;;;;;;5079556;27;51301;-57
2022/09/13 03:49:57;;;;;;;;;7.00;7.00;;;;;;;;5073784;27;51945;-57
2022/09/13 03:52:23;;;;;;;;;7.00;7.00;;;;;;;;5078338;27;51122;-57
2022/09/13 03:54:48;;;;;;;;;7.00;6.67;;;;;;;;5089752;27;51112;-57
2022/09/13 03:57:15;;;;;;;;;6.00;6.00;;;;;;;;5076546;27;50894;-57
2022/09/13 03:59:44;;;;;;;;;8.00;8.00;;;;;;;;5073599;28;51889;-57
2022/09/13 04:02:10;;;;;;;;;4.33;4.00;;;;;;;;5084071;27;51014;-57
2022/09/13 04:04:35;;;;;;;;;6.00;5.67;;;;;;;;5073443;27;50945;-58
2022/09/13 04:07:02;;;;;;;;;7.00;6.67;;;;;;;;5086468;27;51023;-56
2022/09/13 04:09:28;;;;;;;;;7.00;7.00;;;;;;;;5094087;27;52772;-57
2022/09/13 04:11:53;;;;;;;;;6.00;6.00;;;;;;;;5093311;27;51043;-58
2022/09/13 04:14:19;;;;;;;;;6.33;6.33;;;;;;;;5090114;27;51158;-57
2022/09/13 04:16:44;;;;;;;;;5.00;5.00;;;;;;;;5087579;27;51239;-57
2022/09/13 04:19:09;;;;;;;;;6.00;5.67;;;;;;;;5073110;28;50941;-57
2022/09/13 04:21:35;;;;;;;;;4.67;3.33;;;;;;;;5073017;27;51039;-58
2022/09/13 04:24:00;;;;;;;;;6.00;5.00;;;;;;;;5073466;28;51035;-58
2022/09/13 04:26:25;;;;;;;;;9.33;8.33;;;;;;;;5071921;27;51388;-58
2022/09/13 04:28:53;;;;;;;;;7.67;7.00;;;;;;;;5082343;27;51882;-58
2022/09/13 04:31:19;;;;;;;;;5.00;4.67;;;;;;;;5085563;27;51046;-58
2022/09/13 04:33:44;;;;;;;;;4.33;4.33;;;;;;;;5073507;27;50937;-57
2022/09/13 04:36:09;;;;;;;;;7.00;7.00;;;;;;;;5072834;27;51299;-58
2022/09/13 04:38:36;;;;;;;;;5.33;5.00;;;;;;;;5077044;27;51947;-58
2022/09/13 04:41:01;;;;;;;;;4.67;4.67;;;;;;;;5092644;27;51106;-58
2022/09/13 04:43:26;;;;;;;;;7.00;6.67;;;;;;;;5092903;27;51416;-58
2022/09/13 04:45:51;;;;;;;;;6.00;6.00;;;;;;;;5092763;27;51235;-58
2022/09/13 04:48:17;;;;;;;;;6.00;6.00;;;;;;;;5081968;27;51868;-58
2022/09/13 04:50:43;;;;;;;;;5.67;5.67;;;;;;;;5071978;28;51028;-58
2022/09/13 04:53:09;;;;;;;;;6.00;5.33;;;;;;;;5076239;27;51150;-58
2022/09/13 04:55:35;;;;;;;;;6.67;6.00;;;;;;;;5073378;27;51244;-61
2022/09/13 04:58:01;;;;;;;;;6.67;6.67;;;;;;;;5072897;27;51754;-59
2022/09/13 05:00:27;;;;;;;;;7.00;7.00;;;;;;;;5075706;27;51154;-58
2022/09/13 05:02:55;;;;;;;;;8.67;7.67;;;;;;;;5080719;27;50863;-57
2022/09/13 05:05:20;;;;;;;;;5.67;5.00;;;;;;;;5070690;27;51322;-57
2022/09/13 05:07:49;;;;;;;;;7.00;7.00;;;;;;;;5080558;27;52284;-59
2022/09/13 05:10:14;;;;;;;;;5.33;4.00;;;;;;;;5071383;28;51083;-58
2022/09/13 05:12:40;;;;;;;;;11.00;11.00;;;;;;;;5085316;27;51457;-58
2022/09/13 05:15:05;;;;;;;;;7.67;7.00;;;;;;;;5092106;27;50843;-58
2022/09/13 05:17:31;;;;;;;;;5.00;5.00;;;;;;;;5085554;27;51371;-59
2022/09/13 05:19:56;;;;;;;;;6.00;6.00;;;;;;;;5072397;28;50915;-58
2022/09/13 05:22:21;;;;;;;;;5.00;5.00;;;;;;;;5073013;27;51244;-58
2022/09/13 05:24:46;;;;;;;;;6.33;6.33;;;;;;;;5091427;27;51004;-58
2022/09/13 05:27:11;;;;;;;;;6.00;6.00;;;;;;;;5083308;27;51010;-56
2022/09/13 05:29:37;;;;;;;;;7.00;7.00;;;;;;;;5084028;27;51002;-58
2022/09/13 05:32:03;;;;;;;;;7.00;7.00;;;;;;;;5083149;27;50956;-58
2022/09/13 05:34:28;;;;;;;;;6.00;6.00;;;;;;;;5078145;27;51259;-58
2022/09/13 05:36:53;;;;;;;;;7.00;7.00;;;;;;;;5083067;27;51925;-57
2022/09/13 05:39:20;;;;;;;;;4.00;4.00;;;;;;;;5075511;27;50946;-58
2022/09/13 05:41:46;;;;;;;;;11.00;9.00;;;;;;;;5094681;27;51134;-57
2022/09/13 05:44:11;;;;;;;;;8.00;8.00;;;;;;;;5095035;27;51136;-57
2022/09/13 05:46:36;;;;;;;;;8.00;6.00;;;;;;;;5085019;27;51757;-58
2022/09/13 05:49:01;;;;;;;;;6.00;6.00;;;;;;;;5081443;27;51124;-58
2022/09/13 05:51:27;;;;;;;;;7.33;6.33;;;;;;;;5074516;28;51119;-58
2022/09/13 05:53:53;;;;;;;;;6.33;6.00;;;;;;;;5089235;27;51187;-59
2022/09/13 05:56:20;;;;;;;;;5.67;5.00;;;;;;;;5093471;27;51063;-57
2022/09/13 05:58:47;;;;;;;;;7.00;6.67;;;;;;;;5094913;27;51071;-58
2022/09/13 06:01:13;;;;;;;;;5.00;5.00;;;;;;;;5088112;27;51171;-59
2022/09/13 06:03:38;;;;;;;;;11.00;11.00;;;;;;;;5072963;27;51370;-57
2022/09/13 06:06:04;;;;;;;;;7.67;7.67;;;;;;;;5074303;27;51917;-58
2022/09/13 06:08:30;;;;;;;;;8.00;8.00;;;;;;;;5074998;27;51235;-58
2022/09/13 06:10:57;;;;;;;;;10.00;10.00;;;;;;;;5074581;27;51091;-58
2022/09/13 06:13:22;;;;;;;;;7.33;7.00;;;;;;;;5079321;27;51293;-58
2022/09/13 06:15:47;;;;;;;;;6.33;6.00;;;;;;;;5094820;27;51075;-58
2022/09/13 06:18:13;;;;;;;;;6.67;6.00;;;;;;;;5078567;27;51045;-58
2022/09/13 06:20:38;;;;;;;;;8.00;7.00;;;;;;;;5074174;27;50985;-58
2022/09/13 06:23:03;;;;;;;;;7.00;6.67;;;;;;;;5077774;27;51187;-58
2022/09/13 06:25:29;;;;;;;;;7.00;7.00;;;;;;;;5091626;27;53057;-58
2022/09/13 06:27:55;;;;;;;;;7.00;6.00;;;;;;;;5076108;27;50962;-58
2022/09/13 06:30:20;;;;;;;;;8.00;7.67;;;;;;;;5088524;27;51143;-58
2022/09/13 06:32:45;;;;;;;;;9.33;9.00;;;;;;;;5087581;27;51221;-58
2022/09/13 06:35:10;;;;;;;;;7.00;6.67;;;;;;;;5074028;27;51961;-58
2022/09/13 06:37:36;;;;;;;;;8.50;8.50;;;;;;;;5073584;28;51064;-58
2022/09/13 06:40:03;;;;;;;;;9.00;9.00;;;;;;;;5074703;28;50833;-58
2022/09/13 06:42:28;;;;;;;;;7.00;7.00;;;;;;;;5092230;27;51287;-58
2022/09/13 06:44:53;;;;;;;;;9.33;8.67;;;;;;;;5088739;27;51899;-58
2022/09/13 06:47:19;;;;;;;;;9.00;9.00;;;;;;;;5074391;28;51108;-58
2022/09/13 06:49:44;;;;;;;;;11.67;10.67;;;;;;;;5074406;27;51179;-58
2022/09/13 06:52:09;;;;;;;;;9.33;9.00;;;;;;;;5074887;27;51197;-58
2022/09/13 06:54:35;;;;;;;;;5.00;5.00;;;;;;;;5077785;27;51941;-59
2022/09/13 06:57:02;;;;;;;;;6.67;6.00;;;;;;;;5094567;27;51067;-58
2022/09/13 06:59:27;;;;;;;;;6.33;6.00;;;;;;;;5094698;27;51128;-58
2022/09/13 07:01:52;;;;;;;;;7.00;6.67;;;;;;;;5082020;27;50915;-58
2022/09/13 07:04:18;;;;;;;;;6.00;5.67;;;;;;;;5072861;27;51197;-58
2022/09/13 07:06:45;;;;;;;;;5.33;5.00;;;;;;;;5073615;27;51010;-57
2022/09/13 07:09:12;;;;;;;;;7.33;6.00;;;;;;;;5073753;28;51179;-58
2022/09/13 07:11:38;;;;;;;;;6.00;6.00;;;;;;;;5072740;28;51367;-59
2022/09/13 07:14:05;;;;;;;;;7.00;7.00;;;;;;;;5073026;27;51030;-56
2022/09/13 07:16:31;;;;;;;;;10.00;7.67;;;;;;;;5086194;27;51043;-58
2022/09/13 07:18:58;;;;;;;;;6.33;6.33;;;;;;;;5073937;27;51282;-58
2022/09/13 07:21:23;;;;;;;;;6.00;5.00;;;;;;;;5073976;27;51236;-58
2022/09/13 07:23:48;;;;;;;;;8.00;8.00;;;;;;;;5073401;27;51698;-57
2022/09/13 07:26:14;;;;;;;;;5.67;5.67;;;;;;;;5089227;27;50823;-59
2022/09/13 07:28:40;;;;;;;;;5.33;5.33;;;;;;;;5088374;27;51162;-58
2022/09/13 07:31:19;;;;;;;;;8.00;7.00;;;;;;;;5073964;28;50986;-57
2022/09/13 07:33:45;;;;;;;;;8.33;8.33;;;;;;;;5073528;27;51989;-57
2022/09/13 07:36:11;;;;;;;;;4.33;4.00;;;;;;;;5088879;27;51020;-57
2022/09/13 07:38:37;;;;;;;;;8.00;7.33;;;;;;;;5094455;27;51293;-58
2022/09/13 07:41:05;;;;;;;;;7.67;6.33;;;;;;;;5094411;27;51318;-58
2022/09/13 07:43:30;;;;;;;;;4.67;4.67;;;;;;;;5087831;27;51995;-58
2022/09/13 07:45:57;;;;;;;;;8.00;8.00;;;;;;;;5086856;27;50847;-57
2022/09/13 07:48:22;;;;;;;;;10.00;10.00;;;;;;;;5094058;27;51053;-58
2022/09/13 07:51:17;;;;;;;;;6.33;6.33;;;;;;;;5092391;27;51218;-57
2022/09/13 07:53:43;;;;;;;;;7.00;7.00;;;;;;;;5076082;27;51019;-58
2022/09/13 07:56:10;;;;;;;;;6.33;6.00;;;;;;;;5082712;27;51170;-58
2022/09/13 07:58:36;;;;;;;;;9.00;9.00;;;;;;;;5073176;27;50959;-59
2022/09/13 08:01:06;;;;;;;;;9.00;8.33;;;;;;;;5078817;27;51349;-58
2022/09/13 08:03:32;;;;;;;;;8.00;8.00;;;;;;;;5071746;28;52030;-58
2022/09/13 08:05:57;;;;;;;;;7.00;6.33;;;;;;;;5074351;27;51100;-59
2022/09/13 08:08:22;;;;;;;;;7.67;7.67;;;;;;;;5073359;27;50950;-58
2022/09/13 08:10:48;;;;;;;;;5.00;5.00;;;;;;;;5073699;27;51494;-58
2022/09/13 08:13:15;;;;;;;;;6.33;6.00;;;;;;;;5073454;27;51080;-58
2022/09/13 08:15:40;;;;;;;;;2.33;2.00;;;;;;;;5082105;27;51220;-57
2022/09/13 08:18:05;;;;;;;;;6.33;6.33;;;;;;;;5076396;27;51064;-57
2022/09/13 08:20:34;;;;;;;;;8.33;7.00;;;;;;;;5073162;27;51374;-57
2022/09/13 08:22:59;;;;;;;;;6.00;6.00;;;;;;;;5072819;27;51072;-57
2022/09/13 08:25:26;;;;;;;;;5.00;5.00;;;;;;;;5079346;27;51174;-57
2022/09/13 08:27:51;;;;;;;;;6.67;6.00;;;;;;;;5093195;27;50905;-59
2022/09/13 08:30:17;;;;;;;;;6.00;5.33;;;;;;;;5073206;27;51378;-58
2022/09/13 08:32:42;;;;;;;;;9.00;7.00;;;;;;;;5072856;27;51847;-58
2022/09/13 08:35:07;;;;;;;;;4.00;4.00;;;;;;;;5072425;27;51112;-61
2022/09/13 08:37:33;;;;;;;;;6.00;5.00;;;;;;;;5080603;27;51231;-59
2022/09/13 08:39:58;;;;;;;;;5.33;5.33;;;;;;;;5072807;27;51274;-58
2022/09/13 08:42:49;;;;;;;;;5.00;5.00;;;;;;;;5072667;27;51156;-57
2022/09/13 08:45:15;;;;;;;;;7.00;5.00;;;;;;;;5071721;27;52647;-58
2022/09/13 08:47:42;;;;;;;;;7.00;6.67;;;;;;;;5061492;28;51258;-58
2022/09/13 08:50:14;;;;;;;;;7.00;7.00;;;;;;;;5070785;28;51393;-58
2022/09/13 08:52:46;;;;;;;;;6.67;6.33;;;;;;;;5078348;27;51584;-58
2022/09/13 08:55:22;;;;;;;;;7.33;7.00;;;;;;;;5077748;27;50922;-58
2022/09/13 08:57:52;;;;;;;;;6.00;6.00;;;;;;;;5092295;27;51048;-62
2022/09/13 09:00:19;;;;;;;;;5.33;4.67;;;;;;;;5090604;27;51377;-58
2022/09/13 09:02:56;;;;;;;;;7.33;6.33;;;;;;;;5078559;27;52168;-58
2022/09/13 09:05:29;;;;;;;;;4.00;4.00;;;;;;;;5086688;27;51137;-58
2022/09/13 09:08:00;;;;;;;;;6.00;6.00;;;;;;;;5071826;27;51186;-58
2022/09/13 09:10:32;;;;;;;;;5.00;4.33;;;;;;;;5072397;27;51223;-56
2022/09/13 09:13:02;;;;;;;;;5.67;5.00;;;;;;;;5079889;27;52085;-58
2022/09/13 09:15:33;;;;;;;;;6.33;6.33;;;;;;;;5092624;27;51000;-58
2022/09/13 09:18:02;;;;;;;;;8.33;6.67;;;;;;;;5082354;27;51004;-57
2022/09/13 09:20:33;;;;;;;;;6.00;6.00;;;;;;;;5071613;27;51375;-58
2022/09/13 09:23:01;;;;;;;;;4.00;4.00;;;;;;;;5078423;27;52095;-58
2022/09/13 09:25:26;;;;;;;;;5.67;5.67;;;;;;;;5092146;27;50963;-57
2022/09/13 09:27:53;;;;;;;;;3.67;3.67;;;;;;;;5094386;27;50976;-57
2022/09/13 09:30:18;;;;;;;;;5.00;5.00;;;;;;;;5081111;27;50861;-57
2022/09/13 09:33:02;;;;;;;;;5.33;5.00;;;;;;;;5071296;27;51270;-57
2022/09/13 09:35:46;;;;;;;;;5.00;5.00;;;;;;;;5071482;27;50841;-58
2022/09/13 09:38:17;;;;;;;;;8.00;7.00;;;;;;;;5071842;28;50881;-57
2022/09/13 09:40:43;;;;;;;;;5.00;5.00;;;;;;;;5071454;27;51499;-57
2022/09/13 09:43:28;;;;;;;;;10.00;10.00;;;;;;;;5071194;27;51152;-57
2022/09/13 09:45:55;;;;;;;;;8.00;8.00;;;;;;;;5079638;27;51096;-57
2022/09/13 09:48:25;;;;;;;;;11.00;10.00;;;;;;;;5071410;27;51299;-57
2022/09/13 09:50:52;;;;;;;;;8.67;8.00;;;;;;;;5071380;27;51064;-57
2022/09/13 09:53:27;;;;;;;;;8.00;8.00;;;;;;;;5081556;27;52048;-58
2022/09/13 09:56:04;;;;;;;;;8.00;7.67;;;;;;;;5091083;27;50960;-60
2022/09/13 09:58:40;;;;;;;;;5.33;5.33;;;;;;;;5090198;27;50937;-58
2022/09/13 10:01:15;;;;;;;;;8.00;8.00;;;;;;;;5088652;27;51361;-58
2022/09/13 10:03:40;;;;;;;;;7.00;6.33;;;;;;;;5071279;27;52897;-58
2022/09/13 10:06:11;;;;;;;;;10.33;9.67;;;;;;;;5070580;27;51088;-57
2022/09/13 10:08:38;;;;;;;;;8.00;8.00;;;;;;;;5071383;27;51050;-56
2022/09/13 10:11:04;;;;;;;;;7.67;7.67;;;;;;;;5071436;27;51111;-58
2022/09/13 10:13:30;;;;;;;;;10.67;10.00;;;;;;;;5079478;27;52123;-58
2022/09/13 10:15:57;;;;;;;;;7.00;7.00;;;;;;;;5093961;27;50943;-57
2022/09/13 10:18:24;;;;;;;;;7.33;7.00;;;;;;;;5074274;27;50970;-58
2022/09/13 10:20:59;;;;;;;;;9.33;8.67;;;;;;;;5073918;27;51266;-57
2022/09/13 10:23:26;;;;;;;;;9.67;9.00;;;;;;;;5072531;27;51864;-58
2022/09/13 10:25:56;;;;;;;;;7.33;7.33;;;;;;;;5084007;27;51040;-58
2022/09/13 10:28:23;;;;;;;;;7.33;6.67;;;;;;;;5087613;27;51177;-58
2022/09/13 10:30:53;;;;;;;;;7.33;7.00;;;;;;;;5084756;27;50846;-58
2022/09/13 10:33:21;;;;;;;;;6.67;6.67;;;;;;;;5078353;27;52579;-58
2022/09/13 10:35:47;;;;;;;;;9.00;8.00;;;;;;;;5074691;28;51112;-58
2022/09/13 10:38:23;;;;;;;;;2.00;2.00;;;;;;;;5074919;27;50953;-58
2022/09/13 10:40:48;;;;;;;;;5.67;5.00;;;;;;;;5074740;27;51289;-58
2022/09/13 10:43:18;;;;;;;;;7.33;6.00;;;;;;;;5077731;27;51030;-58
2022/09/13 10:45:47;;;;;;;;;6.00;6.00;;;;;;;;5094982;27;50917;-58
2022/09/13 10:48:14;;;;;;;;;6.33;6.33;;;;;;;;5093661;27;51119;-58
2022/09/13 10:50:40;;;;;;;;;6.67;6.00;;;;;;;;5094557;27;51095;-58
2022/09/13 10:53:25;;;;;;;;;5.33;4.67;;;;;;;;5087243;27;52370;-58
2022/09/13 10:55:54;;;;;;;;;6.00;6.00;;;;;;;;5073815;28;51295;-61
2022/09/13 10:58:19;;;;;;;;;7.00;6.00;;;;;;;;5073739;27;51039;-57
2022/09/13 11:01:03;;;;;;;;;5.67;5.67;;;;;;;;5079707;27;51141;-58
2022/09/13 11:03:28;;;;;;;;;7.67;7.67;;;;;;;;5073322;27;52269;-57
2022/09/13 11:06:12;;;;;;;;;7.00;6.33;;;;;;;;5073397;27;51166;-58
2022/09/13 11:08:45;;;;;;;;;9.00;8.00;;;;;;;;5072763;28;51103;-58
2022/09/13 11:11:21;;;;;;;;;5.33;5.33;;;;;;;;5073998;27;51265;-57
2022/09/13 11:13:56;;;;;;;;;7.67;7.00;;;;;;;;5081314;27;52105;-58
2022/09/13 11:16:27;;;;;;;;;11.33;11.33;;;;;;;;5091662;27;51107;-58
2022/09/13 11:19:17;;;;;;;;;6.67;6.67;;;;;;;;5094047;27;50901;-58
2022/09/13 11:21:45;;;;;;;;;7.00;6.67;;;;;;;;5094135;27;51149;-59
2022/09/13 11:24:13;;;;;;;;;7.33;7.33;;;;;;;;5093348;27;51014;-58
2022/09/13 11:26:58;;;;;;;;;7.00;7.00;;;;;;;;5092718;27;51059;-59
2022/09/13 11:29:23;;;;;;;;;6.33;6.33;;;;;;;;5104068;27;51010;-59
2022/09/13 11:32:01;;;;;;;;;8.00;8.00;;;;;;;;5094551;27;50784;-58
2022/09/13 11:34:38;;;;;;;;;5.33;5.33;;;;;;;;5093060;27;51187;-57
2022/09/13 11:37:06;;;;;;;;;7.00;7.00;;;;;;;;5083769;27;51062;-58
2022/09/13 11:39:42;;;;;;;;;3.00;3.00;;;;;;;;5080897;27;51547;-57
2022/09/13 11:42:15;;;;;;;;;5.00;5.00;;;;;;;;5073497;27;50977;-58
2022/09/13 11:44:43;;;;;;;;;3.67;3.67;;;;;;;;5072922;27;51283;-58
2022/09/13 11:47:37;;;;;;;;;6.00;6.00;;;;;;;;5073197;27;51202;-58
2022/09/13 11:50:21;;;;;;;;;4.33;4.00;;;;;;;;5068351;27;51059;-58
2022/09/13 11:52:49;;;;;;;;;5.00;5.00;;;;;;;;5078415;27;51314;-58
2022/09/13 11:55:17;;;;;;;;;5.00;5.00;;;;;;;;5073399;27;51602;-59
2022/09/13 11:57:47;;;;;;;;;5.33;5.33;;;;;;;;5086603;27;50969;-58
2022/09/13 12:00:12;;;;;;;;;6.00;5.33;;;;;;;;5092588;27;51110;-58
2022/09/13 12:02:53;;;;;;;;;4.00;3.00;;;;;;;;5077347;27;50954;-58
2022/09/13 12:05:22;;;;;;;;;4.67;4.00;;;;;;;;5073021;27;52181;-59
2022/09/13 12:08:06;;;;;;;;;5.00;5.00;;;;;;;;5085494;27;51023;-60
2022/09/13 12:10:37;;;;;;;;;7.00;7.00;;;;;;;;5093752;27;50988;-59
2022/09/13 12:13:03;;;;;;;;;4.00;4.00;;;;;;;;5093791;27;51037;-58
2022/09/13 12:15:35;;;;;;;;;3.33;3.33;;;;;;;;5092641;27;51776;-59
2022/09/13 12:18:04;;;;;;;;;6.00;6.00;;;;;;;;5072066;27;51036;-58
2022/09/13 12:20:29;;;;;;;;;7.67;7.00;;;;;;;;5072397;27;50970;-59
2022/09/13 12:22:56;;;;;;;;;6.00;6.00;;;;;;;;5072650;27;51112;-59
2022/09/13 12:25:23;;;;;;;;;5.00;5.00;;;;;;;;5072777;28;53097;-58
2022/09/13 12:27:51;;;;;;;;;5.00;5.00;;;;;;;;5076025;27;51211;-57
2022/09/13 12:30:18;;;;;;;;;6.00;5.00;;;;;;;;5090842;27;51059;-57
2022/09/13 12:32:45;;;;;;;;;5.33;5.33;;;;;;;;5093435;27;51045;-58
2022/09/13 12:35:31;;;;;;;;;7.00;7.00;;;;;;;;5091895;27;52924;-57
2022/09/13 12:38:15;;;;;;;;;6.00;5.33;;;;;;;;5074787;27;50866;-58
2022/09/13 12:40:44;;;;;;;;;4.00;4.00;;;;;;;;5072770;27;50986;-60
2022/09/13 12:43:28;;;;;;;;;6.67;5.67;;;;;;;;5072665;27;51007;-59
2022/09/13 12:45:59;;;;;;;;;5.67;5.67;;;;;;;;5072512;27;52354;-58
2022/09/13 12:48:43;;;;;;;;;4.33;4.33;;;;;;;;5084677;27;51060;-57
2022/09/13 12:51:44;;;;;;;;;5.00;4.67;;;;;;;;5092663;27;51025;-58
2022/09/13 12:54:24;;;;;;;;;5.00;5.00;;;;;;;;5059579;28;51392;-60
2022/09/13 12:57:08;;;;;;;;;3.00;3.00;;;;;;;;5069139;27;51192;-62
2022/09/13 12:59:37;;;;;;;;;5.00;5.00;;;;;;;;5071868;27;51037;-58
2022/09/13 13:02:21;;;;;;;;;3.33;3.33;;;;;;;;5082937;27;51108;-57
2022/09/13 13:04:52;;;;;;;;;4.00;4.00;;;;;;;;5071637;27;50931;-59
2022/09/13 13:07:19;;;;;;;;;6.00;6.00;;;;;;;;5071298;28;50959;-58
2022/09/13 13:09:47;;;;;;;;;4.33;4.33;;;;;;;;5070476;28;51085;-58
2022/09/13 13:12:27;;;;;;;;;4.00;4.00;;;;;;;;5080098;27;51177;-58
2022/09/13 13:14:53;;;;;;;;;4.33;4.33;;;;;;;;5072935;27;51068;-58
2022/09/13 13:17:37;;;;;;;;;3.00;2.00;;;;;;;;5075622;27;51057;-58
2022/09/13 13:20:21;;;;;;;;;4.67;4.67;;;;;;;;5071673;28;51059;-57
2022/09/13 13:22:50;;;;;;;;;5.00;4.00;;;;;;;;5071999;27;51030;-58
2022/09/13 13:25:38;;;;;;;;;4.67;4.67;;;;;;;;5080970;27;51109;-56
2022/09/13 13:28:22;;;;;;;;;3.33;3.33;;;;;;;;5096057;27;51900;-57
2022/09/13 13:30:51;;;;;;;;;5.67;5.00;;;;;;;;5080489;27;51060;-57
2022/09/13 13:33:18;;;;;;;;;5.00;5.00;;;;;;;;5086276;27;51175;-57
2022/09/13 13:35:44;;;;;;;;;3.33;3.00;;;;;;;;5080555;27;51274;-58
2022/09/13 13:38:27;;;;;;;;;5.00;5.00;;;;;;;;5071984;27;51750;-58
2022/09/13 13:41:04;;;;;;;;;6.00;6.00;;;;;;;;5071571;27;51011;-59
2022/09/13 13:43:30;;;;;;;;;6.00;5.00;;;;;;;;5072025;27;51054;-58
2022/09/13 13:45:57;;;;;;;;;5.00;5.00;;;;;;;;5071914;27;50956;-58
2022/09/13 13:48:36;;;;;;;;;6.33;6.33;;;;;;;;5088227;27;51820;-58
2022/09/13 13:51:10;;;;;;;;;6.67;6.67;;;;;;;;5095017;27;51117;-59
2022/09/13 13:53:36;;;;;;;;;6.67;6.33;;;;;;;;5090926;27;51067;-57
2022/09/13 13:56:07;;;;;;;;;7.67;7.67;;;;;;;;5075072;27;51263;-58
2022/09/13 13:58:44;;;;;;;;;4.67;4.67;;;;;;;;5074487;27;51694;-57
2022/09/13 14:01:14;;;;;;;;;5.00;5.00;;;;;;;;5079149;27;51087;-57
2022/09/13 14:03:50;;;;;;;;;6.00;5.67;;;;;;;;5075135;27;51123;-57
2022/09/13 14:06:26;;;;;;;;;4.00;4.00;;;;;;;;5074924;27;51282;-58
2022/09/13 14:08:55;;;;;;;;;5.67;5.67;;;;;;;;5073960;27;52284;-58
2022/09/13 14:11:28;;;;;;;;;6.00;5.67;;;;;;;;5074591;27;51038;-59
2022/09/13 14:14:08;;;;;;;;;5.00;5.00;;;;;;;;5075124;27;50932;-58
2022/09/13 14:16:45;;;;;;;;;6.00;6.00;;;;;;;;5075068;27;51456;-58
2022/09/13 14:19:31;;;;;;;;;6.00;6.00;;;;;;;;5088599;27;51090;-58
2022/09/13 14:22:17;;;;;;;;;6.00;6.00;;;;;;;;5091944;27;51142;-60
2022/09/13 14:24:50;;;;;;;;;8.00;8.00;;;;;;;;5093852;27;51068;-59
2022/09/13 14:27:26;;;;;;;;;7.33;7.33;;;;;;;;5095266;27;51034;-58
2022/09/13 14:29:53;;;;;;;;;6.33;6.00;;;;;;;;5078635;27;50952;-58
2022/09/13 14:32:20;;;;;;;;;8.00;7.00;;;;;;;;5074188;27;50946;-59
2022/09/13 14:34:57;;;;;;;;;7.33;6.67;;;;;;;;5073386;27;51129;-59
2022/09/13 14:37:25;;;;;;;;;7.33;6.67;;;;;;;;5079461;27;51324;-59
2022/09/13 14:39:59;;;;;;;;;6.33;6.33;;;;;;;;5090752;27;52101;-58
2022/09/13 14:42:25;;;;;;;;;7.00;6.33;;;;;;;;5073852;27;51193;-58
2022/09/13 14:44:50;;;;;;;;;7.00;7.00;;;;;;;;5073310;27;51059;-58
2022/09/13 14:47:19;;;;;;;;;7.00;7.00;;;;;;;;5073633;27;51042;-58
2022/09/13 14:49:48;;;;;;;;;7.00;6.00;;;;;;;;5072883;27;51105;-59
2022/09/13 14:52:20;;;;;;;;;5.00;5.00;;;;;;;;5094025;27;50960;-57
2022/09/13 14:54:51;;;;;;;;;6.00;6.00;;;;;;;;5077665;27;51255;-58
2022/09/13 14:57:19;;;;;;;;;8.00;8.00;;;;;;;;5073881;27;51309;-58